Time;durP1;ratioP1;P1;durP2;ratioP2;P2;SDS_P1;SDS_P2;PMS_P1;PMS_P2;Temp;Humidity;BMP_temperature;BMP_pressure;BME280_temperature;BME280_humidity;BME280_pressure;Samples;Min_cycle;Max_cycle;Signal;HPM_P1;HPM_P2
2023/08/20 00:00:04;;;;;;;10.18;4.30;;;;;;;18.24;90.26;102012.69;5047373;28;20025;-71
2023/08/20 00:02:32;;;;;;;9.32;4.10;;;;;;;18.26;90.65;102016.03;5037787;28;20047;-70
2023/08/20 00:04:58;;;;;;;9.80;4.07;;;;;;;18.32;90.78;102008.19;5043130;28;20025;-70
2023/08/20 00:07:24;;;;;;;11.35;4.25;;;;;;;18.39;90.96;102006.41;5035021;28;20099;-70
2023/08/20 00:09:49;;;;;;;10.00;4.38;;;;;;;18.36;91.06;102012.16;5045907;28;20112;-71
2023/08/20 00:12:14;;;;;;;11.15;4.50;;;;;;;18.47;91.41;102011.63;5040276;28;20077;-71
2023/08/20 00:14:53;;;;;;;10.65;4.40;;;;;;;18.54;91.55;102010.69;5046224;28;20055;-70
2023/08/20 00:17:20;;;;;;;12.98;5.25;;;;;;;18.46;91.33;102010.81;5049283;28;20029;-71
2023/08/20 00:19:45;;;;;;;11.65;4.90;;;;;;;18.41;91.77;102001.66;5040406;28;20040;-71
2023/08/20 00:22:11;;;;;;;12.02;5.00;;;;;;;18.46;92.08;102004.59;5045161;28;20025;-70
2023/08/20 00:24:36;;;;;;;9.82;4.93;;;;;;;18.55;92.21;101998.06;5041466;28;20189;-71
2023/08/20 00:27:02;;;;;;;10.13;4.60;;;;;;;18.63;92.14;101995.25;5050219;28;20027;-71
2023/08/20 00:29:27;;;;;;;9.45;5.05;;;;;;;18.65;91.82;101993.19;5045450;28;20032;-70
2023/08/20 00:31:52;;;;;;;9.43;4.70;;;;;;;18.68;91.86;102000.88;5048165;28;20551;-70
2023/08/20 00:34:17;;;;;;;12.27;4.68;;;;;;;18.70;92.00;102006.06;5046611;28;20027;-71
2023/08/20 00:36:43;;;;;;;10.65;4.40;;;;;;;18.65;91.98;102011.19;5047138;28;20025;-71
2023/08/20 00:39:08;;;;;;;10.10;4.22;;;;;;;18.64;92.06;102013.06;5043345;28;20487;-71
2023/08/20 00:41:33;;;;;;;9.90;4.63;;;;;;;18.66;91.95;102015.56;5038754;28;20040;-70
2023/08/20 00:43:58;;;;;;;12.43;4.38;;;;;;;18.60;92.08;102017.16;5040713;28;20032;-71
2023/08/20 00:46:24;;;;;;;9.60;4.60;;;;;;;18.61;91.74;102020.66;5043275;28;20122;-71
2023/08/20 00:48:49;;;;;;;9.88;4.18;;;;;;;18.61;91.63;102024.19;5042224;28;20090;-71
2023/08/20 00:51:14;;;;;;;10.48;4.65;;;;;;;18.49;91.34;102026.56;5037687;28;20037;-71
2023/08/20 00:53:40;;;;;;;10.65;4.50;;;;;;;18.42;91.62;102028.34;5030322;28;20415;-71
2023/08/20 00:56:05;;;;;;;12.95;5.28;;;;;;;18.36;91.87;102036.38;5034837;28;20117;-71
2023/08/20 00:58:31;;;;;;;8.98;4.90;;;;;;;18.27;91.89;102039.19;5043361;28;20033;-70
2023/08/20 01:00:56;;;;;;;10.45;5.50;;;;;;;18.21;92.39;102053.41;5037434;28;20025;-70
2023/08/20 01:03:21;;;;;;;12.65;5.68;;;;;;;18.24;92.71;102050.34;5036283;28;20064;-70
2023/08/20 01:05:58;;;;;;;9.43;4.63;;;;;;;18.22;93.19;102060.47;5043196;28;20074;-70
2023/08/20 01:08:38;;;;;;;10.90;5.40;;;;;;;18.29;93.52;102055.16;5033432;28;20026;-70
2023/08/20 01:11:21;;;;;;;8.88;5.05;;;;;;;18.32;93.73;102060.13;5038591;28;20036;-71
2023/08/20 01:13:46;;;;;;;11.23;4.60;;;;;;;18.42;93.63;102059.81;5034532;28;20029;-71
2023/08/20 01:16:12;;;;;;;8.75;5.05;;;;;;;18.41;93.63;102064.34;5036837;28;20017;-70
2023/08/20 01:18:37;;;;;;;8.95;4.90;;;;;;;18.36;93.73;102064.09;5045833;28;20443;-71
2023/08/20 01:21:12;;;;;;;12.23;5.20;;;;;;;18.33;93.91;102069.03;5031483;28;20029;-70
2023/08/20 01:23:52;;;;;;;10.55;5.00;;;;;;;18.38;94.02;102063.91;5039784;28;20028;-70
2023/08/20 01:26:34;;;;;;;10.85;4.80;;;;;;;18.44;94.30;102055.06;5044156;28;20510;-70
2023/08/20 01:28:59;;;;;;;6.43;4.20;;;;;;;18.51;94.33;102053.28;5042868;28;20029;-70
2023/08/20 01:31:26;;;;;;;12.23;4.80;;;;;;;18.54;93.98;102060.97;5040209;28;20033;-70
2023/08/20 01:33:52;;;;;;;10.63;4.30;;;;;;;18.56;93.74;102058.91;5040807;28;20033;-70
2023/08/20 01:36:17;;;;;;;9.73;5.00;;;;;;;18.60;93.51;102060.19;5036669;28;20028;-71
2023/08/20 01:38:42;;;;;;;8.32;4.72;;;;;;;18.67;93.86;102061.09;5039158;28;20036;-70
2023/08/20 01:41:08;;;;;;;10.05;4.78;;;;;;;18.68;93.53;102062.78;5043836;28;20074;-70
2023/08/20 01:43:34;;;;;;;13.13;4.80;;;;;;;18.67;93.64;102063.78;5042785;28;20032;-71
2023/08/20 01:45:59;;;;;;;8.63;4.47;;;;;;;18.65;93.59;102070.41;5041425;28;20047;-70
2023/08/20 01:48:24;;;;;;;10.05;4.97;;;;;;;18.57;93.91;102071.34;5035940;28;20114;-71
2023/08/20 01:50:50;;;;;;;10.30;4.72;;;;;;;18.54;93.96;102077.13;5041695;28;20502;-70
2023/08/20 01:53:15;;;;;;;13.27;5.40;;;;;;;18.54;94.25;102075.25;5043301;28;20074;-71
2023/08/20 01:55:40;;;;;;;9.07;4.88;;;;;;;18.47;93.83;102078.88;5044963;28;20021;-71
2023/08/20 01:58:05;;;;;;;10.32;4.85;;;;;;;18.45;93.77;102078.25;5032245;28;20026;-71
2023/08/20 02:00:31;;;;;;;13.35;4.80;;;;;;;18.46;93.80;102093.38;5043368;28;20036;-71
2023/08/20 02:02:57;;;;;;;10.93;5.00;;;;;;;18.49;93.67;102091.13;5034950;28;20078;-70
2023/08/20 02:05:22;;;;;;;15.15;4.93;;;;;;;18.49;93.50;102098.34;5036438;28;20021;-71
2023/08/20 02:07:47;;;;;;;14.05;4.60;;;;;;;18.48;93.43;102099.38;5047339;28;20025;-71
2023/08/20 02:10:13;;;;;;;12.27;5.07;;;;;;;18.40;93.22;102103.03;5041850;28;20029;-71
2023/08/20 02:12:40;;;;;;;10.80;4.53;;;;;;;18.40;93.55;102104.88;5041436;28;20082;-70
2023/08/20 02:15:06;;;;;;;9.30;4.35;;;;;;;18.32;93.35;102094.25;5042058;28;20025;-70
2023/08/20 02:17:32;;;;;;;10.50;4.80;;;;;;;18.41;nan;102093.94;5036742;28;20021;-71
2023/08/20 02:19:57;;;;;;;8.93;4.13;;;;;;;18.44;93.22;102087.34;5035172;28;20088;-71
2023/08/20 02:22:22;;;;;;;9.50;4.53;;;;;;;18.50;93.44;102091.94;5037028;28;20087;-70
2023/08/20 02:24:48;;;;;;;10.32;4.25;;;;;;;18.55;93.37;102089.53;5040830;28;20017;-70
2023/08/20 02:27:13;;;;;;;13.45;5.07;;;;;;;18.57;93.32;102091.00;5046068;28;20024;-70
2023/08/20 02:29:38;;;;;;;12.98;4.90;;;;;;;18.48;93.08;102096.69;5035790;28;20056;-71
2023/08/20 02:32:03;;;;;;;11.85;4.65;;;;;;;18.48;92.71;102094.84;5034987;28;20037;-70
2023/08/20 02:34:29;;;;;;;9.80;4.65;;;;;;;18.46;92.72;102109.50;5035935;28;20048;-71
2023/08/20 02:36:54;;;;;;;9.43;4.22;;;;;;;18.39;92.64;102108.59;5043384;28;20494;-70
2023/08/20 02:39:20;;;;;;;9.98;4.47;;;;;;;18.27;92.72;102103.75;5048643;28;20032;-71
2023/08/20 02:41:45;;;;;;;10.65;4.60;;;;;;;18.19;92.80;102097.63;5045200;28;20502;-70
2023/08/20 02:44:10;;;;;;;14.98;4.60;;;;;;;18.15;92.93;102096.34;5048640;28;20013;-71
2023/08/20 02:46:38;;;;;;;14.68;5.40;;;;;;;18.12;93.15;102096.72;5046943;28;20048;-71
2023/08/20 02:49:03;;;;;;;12.85;4.90;;;;;;;18.11;93.22;102092.38;5050981;28;20074;-71
2023/08/20 02:51:28;;;;;;;8.93;4.15;;;;;;;18.04;93.31;102086.09;5036919;28;20025;-71
2023/08/20 02:53:53;;;;;;;8.13;3.88;;;;;;;18.10;93.49;102093.41;5044239;28;20028;-70
2023/08/20 02:56:19;;;;;;;9.73;4.28;;;;;;;18.08;93.07;102093.59;5049960;28;20025;-70
2023/08/20 02:58:44;;;;;;;10.40;4.50;;;;;;;18.13;93.02;102091.16;5047768;28;20044;-70
2023/08/20 03:01:24;;;;;;;11.93;4.68;;;;;;;18.18;93.20;102094.09;5040420;28;20510;-71
2023/08/20 03:03:49;;;;;;;12.80;4.75;;;;;;;18.16;92.75;102090.78;5047637;28;20035;-71
2023/08/20 03:06:14;;;;;;;11.65;4.50;;;;;;;18.15;92.80;102082.91;5050134;28;20033;-70
2023/08/20 03:08:40;;;;;;;9.30;4.40;;;;;;;18.04;92.57;102075.34;5041920;28;20029;-70
2023/08/20 03:11:05;;;;;;;10.82;4.13;;;;;;;18.03;92.71;102077.19;5045221;28;20027;-70
2023/08/20 03:13:30;;;;;;;8.77;3.90;;;;;;;18.03;92.65;102077.19;5045229;28;20112;-71
2023/08/20 03:15:55;;;;;;;9.85;4.70;;;;;;;17.99;92.74;102078.59;5042939;28;20032;-71
2023/08/20 03:18:21;;;;;;;11.60;4.22;;;;;;;18.00;92.71;102080.28;5040792;28;20034;-70
2023/08/20 03:20:46;;;;;;;12.07;4.43;;;;;;;18.00;92.85;102069.50;5045178;28;20033;-71
2023/08/20 03:23:11;;;;;;;9.10;4.18;;;;;;;17.96;92.79;102073.63;5040229;28;20566;-70
2023/08/20 03:25:38;;;;;;;10.18;4.55;;;;;;;17.93;92.52;102064.06;5044115;28;20038;-70
2023/08/20 03:28:03;;;;;;;10.40;4.35;;;;;;;17.93;92.48;102066.75;5044308;28;20033;-70
2023/08/20 03:30:29;;;;;;;10.13;4.47;;;;;;;17.93;92.58;102074.00;5037756;28;20103;-71
2023/08/20 03:32:54;;;;;;;8.65;4.22;;;;;;;17.86;92.59;102070.38;5047721;28;20075;-70
2023/08/20 03:35:19;;;;;;;13.63;4.60;;;;;;;17.82;92.19;102063.72;5043189;28;20021;-70
2023/08/20 03:37:44;;;;;;;9.27;4.50;;;;;;;17.81;92.22;102070.09;5050281;28;20104;-71
2023/08/20 03:40:10;;;;;;;9.18;3.88;;;;;;;17.71;92.21;102062.34;5045257;28;20048;-71
2023/08/20 03:42:35;;;;;;;14.23;4.35;;;;;;;17.64;92.22;102067.63;5049075;28;20070;-70
2023/08/20 03:45:00;;;;;;;10.80;4.93;;;;;;;17.59;92.36;102069.16;5037360;28;20082;-70
2023/08/20 03:47:26;;;;;;;5.57;3.60;;;;;;;17.53;92.19;102081.50;5043285;28;20021;-71
2023/08/20 03:49:52;;;;;;;6.90;3.63;;;;;;;17.42;91.90;102084.66;5039660;28;20653;-71
2023/08/20 03:52:17;;;;;;;5.68;3.42;;;;;;;17.41;92.04;102083.00;5049452;28;20086;-70
2023/08/20 03:54:42;;;;;;;6.00;2.65;;;;;;;17.27;91.54;102086.50;5036213;28;20037;-70
2023/08/20 03:57:07;;;;;;;6.82;2.55;;;;;;;17.16;91.28;102086.94;5046564;28;20498;-71
2023/08/20 03:59:33;;;;;;;5.75;2.30;;;;;;;17.11;91.62;102095.56;5045278;28;20033;-70
2023/08/20 04:01:58;;;;;;;5.65;2.60;;;;;;;17.04;91.79;102098.13;5041257;28;20025;-71
2023/08/20 04:04:23;;;;;;;8.02;3.97;;;;;;;17.06;92.10;102102.47;5049482;28;20020;-70
2023/08/20 04:06:49;;;;;;;7.60;3.22;;;;;;;16.94;91.96;102102.09;5038119;28;20491;-70
2023/08/20 04:09:15;;;;;;;6.40;2.78;;;;;;;16.84;92.44;102099.66;5039541;28;20112;-70
2023/08/20 04:11:40;;;;;;;6.32;2.38;;;;;;;16.76;92.34;102102.41;5044879;28;20100;-70
2023/08/20 04:14:06;;;;;;;3.75;2.65;;;;;;;16.62;92.59;102100.47;5048705;28;20029;-70
2023/08/20 04:16:31;;;;;;;6.78;3.03;;;;;;;16.58;92.50;102101.84;5042061;28;20040;-70
2023/08/20 04:18:56;;;;;;;7.10;4.00;;;;;;;16.56;93.65;102104.72;5044210;28;20494;-70
2023/08/20 04:21:22;;;;;;;6.70;3.58;;;;;;;16.53;94.08;102104.25;5042923;28;20346;-70
2023/08/20 04:23:47;;;;;;;7.45;3.65;;;;;;;16.52;94.34;102105.25;5046058;28;20033;-70
2023/08/20 04:26:13;;;;;;;8.68;4.22;;;;;;;16.53;94.93;102105.06;5049005;28;20439;-70
2023/08/20 04:28:38;;;;;;;10.02;4.80;;;;;;;16.55;95.19;102102.22;5043842;28;20029;-70
2023/08/20 04:31:03;;;;;;;7.45;4.30;;;;;;;16.63;95.50;102100.28;5045267;28;20025;-70
2023/08/20 04:33:29;;;;;;;9.73;4.32;;;;;;;16.67;95.28;102101.63;5041466;28;20073;-70
2023/08/20 04:35:54;;;;;;;8.18;4.20;;;;;;;16.66;94.74;102096.44;5037761;28;20675;-70
2023/08/20 04:38:19;;;;;;;8.18;3.90;;;;;;;16.65;94.66;102092.91;5045162;28;20102;-70
2023/08/20 04:40:48;;;;;;;13.27;5.30;;;;;;;16.68;94.68;102097.09;5038422;28;20061;-70
2023/08/20 04:43:14;;;;;;;11.65;4.35;;;;;;;16.70;94.93;102097.75;5042114;28;20036;-70
2023/08/20 04:45:40;;;;;;;10.52;4.65;;;;;;;16.69;94.76;102101.44;5037706;28;20030;-70
2023/08/20 04:48:06;;;;;;;9.10;4.32;;;;;;;16.73;94.85;102102.75;5032294;28;20104;-70
2023/08/20 04:50:31;;;;;;;9.20;4.35;;;;;;;16.69;94.63;102104.97;5042628;28;20109;-70
2023/08/20 04:52:59;;;;;;;10.43;4.03;;;;;;;16.70;94.43;102103.13;5029536;28;20017;-70
2023/08/20 04:55:25;;;;;;;10.48;4.63;;;;;;;16.68;94.57;102111.34;5036995;28;20087;-70
2023/08/20 04:57:50;;;;;;;11.52;4.60;;;;;;;16.69;94.61;102114.88;5049098;28;20029;-70
2023/08/20 05:00:15;;;;;;;10.40;4.32;;;;;;;16.70;94.65;102116.53;5045916;28;20036;-70
2023/08/20 05:02:41;;;;;;;10.52;5.15;;;;;;;16.71;94.42;102118.19;5041838;28;20355;-70
2023/08/20 05:05:06;;;;;;;8.52;4.00;;;;;;;16.68;94.80;102130.13;5046738;28;20025;-70
2023/08/20 05:07:32;;;;;;;8.90;4.32;;;;;;;16.63;94.34;102127.13;5044139;28;20123;-70
2023/08/20 05:09:57;;;;;;;9.52;4.30;;;;;;;16.60;94.26;102122.13;5046112;28;20547;-70
2023/08/20 05:12:22;;;;;;;6.97;4.13;;;;;;;16.58;94.18;102129.50;5040305;28;20457;-70
2023/08/20 05:14:47;;;;;;;10.52;4.35;;;;;;;16.55;94.41;102124.50;5047243;28;20028;-70
2023/08/20 05:17:13;;;;;;;11.90;5.03;;;;;;;16.55;94.48;102137.91;5040523;28;20048;-70
2023/08/20 05:19:38;;;;;;;7.72;4.15;;;;;;;16.48;94.59;102131.59;5034392;28;20029;-70
2023/08/20 05:22:03;;;;;;;13.77;5.20;;;;;;;16.43;94.65;102144.69;5030238;28;20033;-70
2023/08/20 05:24:28;;;;;;;13.40;4.85;;;;;;;16.42;95.14;102137.66;5042699;28;20490;-70
2023/08/20 05:27:26;;;;;;;10.57;4.90;;;;;;;16.46;95.76;102157.72;5030395;28;20013;-70
2023/08/20 05:29:51;;;;;;;12.05;5.25;;;;;;;16.39;95.52;102154.09;5035172;28;20053;-70
2023/08/20 05:32:17;;;;;;;13.23;5.75;;;;;;;16.49;95.63;102148.53;5035814;28;20660;-70
2023/08/20 05:34:42;;;;;;;11.32;5.20;;;;;;;16.56;96.41;102152.16;5035419;28;20036;-70
2023/08/20 05:37:08;;;;;;;11.48;5.50;;;;;;;16.60;96.41;102153.47;5034422;28;20036;-70
2023/08/20 05:39:42;;;;;;;9.50;5.32;;;;;;;16.62;96.57;102154.97;5028788;28;20538;-70
2023/08/20 05:42:07;;;;;;;11.35;5.47;;;;;;;16.70;96.55;102151.41;5028080;28;20487;-70
2023/08/20 05:44:33;;;;;;;8.80;5.30;;;;;;;16.77;96.46;102162.25;5032029;28;20108;-70
2023/08/20 05:46:58;;;;;;;14.52;5.85;;;;;;;16.81;96.26;102156.38;5032656;28;20052;-70
2023/08/20 05:49:23;;;;;;;11.68;5.03;;;;;;;16.85;96.22;102154.16;5035515;28;20025;-70
2023/08/20 05:51:49;;;;;;;9.55;5.00;;;;;;;16.89;96.07;102147.41;5033075;28;20501;-70
2023/08/20 05:54:14;;;;;;;8.93;5.07;;;;;;;16.94;95.90;102153.06;5034182;28;20029;-70
2023/08/20 05:56:39;;;;;;;12.65;5.60;;;;;;;16.99;95.99;102150.69;5043724;28;20102;-70
2023/08/20 05:59:05;;;;;;;12.57;5.22;;;;;;;17.03;96.00;102155.50;5032522;28;20673;-70
2023/08/20 06:01:31;;;;;;;13.77;5.32;;;;;;;17.08;96.01;102156.81;5035265;28;20040;-70
2023/08/20 06:03:56;;;;;;;10.43;5.45;;;;;;;17.08;96.21;102144.25;5028159;28;20060;-70
2023/08/20 06:06:21;;;;;;;18.13;6.22;;;;;;;17.21;96.73;102159.72;5037813;28;20052;-70
2023/08/20 06:08:47;;;;;;;16.23;6.00;;;;;;;17.31;96.74;102153.06;5039624;28;20029;-70
2023/08/20 06:11:12;;;;;;;16.23;6.70;;;;;;;17.40;96.72;102158.38;5042810;28;20064;-70
2023/08/20 06:13:37;;;;;;;15.80;6.63;;;;;;;17.47;96.47;102161.97;5039739;28;20013;-70
2023/08/20 06:16:03;;;;;;;11.80;6.90;;;;;;;17.55;96.56;102156.53;5039457;28;20025;-70
2023/08/20 06:18:28;;;;;;;15.65;6.60;;;;;;;17.62;96.71;102152.06;5035397;28;20029;-70
2023/08/20 06:20:53;;;;;;;13.32;6.80;;;;;;;17.71;96.60;102158.25;5046148;28;20031;-70
2023/08/20 06:23:18;;;;;;;12.50;6.88;;;;;;;17.76;96.33;102156.66;5043656;28;20067;-70
2023/08/20 06:25:44;;;;;;;17.58;8.00;;;;;;;17.79;96.23;102158.13;5035669;28;20113;-70
2023/08/20 06:28:09;;;;;;;16.40;7.80;;;;;;;17.86;96.42;102156.38;5037934;28;20087;-70
2023/08/20 06:30:35;;;;;;;14.80;8.38;;;;;;;17.91;95.90;102162.00;5037013;28;20025;-70
2023/08/20 06:33:00;;;;;;;22.65;8.38;;;;;;;17.94;95.70;102161.66;5039424;28;20029;-70
2023/08/20 06:35:25;;;;;;;17.45;8.18;;;;;;;17.99;95.66;102163.78;5037934;28;20032;-70
2023/08/20 06:37:51;;;;;;;21.48;8.38;;;;;;;18.03;95.65;102163.22;5047671;28;20509;-70
2023/08/20 06:40:16;;;;;;;16.42;8.45;;;;;;;18.06;95.88;102165.53;5046171;28;20040;-70
2023/08/20 06:42:41;;;;;;;16.80;8.52;;;;;;;18.06;96.06;102154.78;5041479;28;20039;-70
2023/08/20 06:45:08;;;;;;;18.95;9.10;;;;;;;18.11;96.26;102163.09;5044312;28;20585;-70
2023/08/20 06:47:33;;;;;;;22.73;8.88;;;;;;;18.16;96.36;102160.69;5034489;28;20105;-70
2023/08/20 06:49:59;;;;;;;21.35;9.50;;;;;;;18.20;96.34;102155.75;5041950;28;20133;-70
2023/08/20 06:52:24;;;;;;;19.23;9.32;;;;;;;18.23;96.44;102150.88;5046850;28;20087;-70
2023/08/20 06:54:49;;;;;;;18.23;9.35;;;;;;;18.36;96.02;102160.09;5043310;28;20021;-70
2023/08/20 06:57:14;;;;;;;18.70;8.77;;;;;;;18.43;95.78;102161.81;5042320;28;20052;-70
2023/08/20 06:59:40;;;;;;;20.13;9.23;;;;;;;18.44;95.05;102158.13;5047673;28;20038;-70
2023/08/20 07:02:05;;;;;;;15.65;8.70;;;;;;;18.54;94.88;102161.34;5041170;28;20625;-70
2023/08/20 07:04:30;;;;;;;15.07;8.30;;;;;;;18.64;94.42;102166.44;5046089;28;20641;-70
2023/08/20 07:06:56;;;;;;;15.48;7.40;;;;;;;18.70;93.87;102172.91;5043716;28;20462;-70
2023/08/20 07:09:21;;;;;;;17.38;7.63;;;;;;;18.75;93.34;102182.06;5038838;28;20435;-70
2023/08/20 07:11:47;;;;;;;18.08;7.30;;;;;;;18.80;92.75;102176.97;5042363;28;20022;-70
2023/08/20 07:14:12;;;;;;;19.52;7.00;;;;;;;18.85;92.63;102177.22;5038105;28;20152;-70
2023/08/20 07:16:37;;;;;;;14.50;7.35;;;;;;;18.90;92.12;102178.50;5038876;28;20059;-70
2023/08/20 07:19:03;;;;;;;13.20;6.72;;;;;;;18.96;91.72;102178.56;5039282;28;20017;-70
2023/08/20 07:21:28;;;;;;;13.43;5.90;;;;;;;18.98;90.62;102176.50;5030158;28;20396;-70
2023/08/20 07:23:53;;;;;;;14.18;6.32;;;;;;;19.06;90.26;102176.34;5043270;28;20032;-70
2023/08/20 07:26:18;;;;;;;15.77;6.30;;;;;;;19.09;89.92;102177.84;5046370;28;20052;-70
2023/08/20 07:28:56;;;;;;;17.98;6.00;;;;;;;19.13;89.19;102179.13;5041796;28;20021;-70
2023/08/20 07:31:22;;;;;;;12.65;5.75;;;;;;;19.20;88.74;102174.63;5039148;28;20021;-70
2023/08/20 07:33:48;;;;;;;10.93;5.20;;;;;;;19.29;88.34;102170.75;5046712;28;20026;-70
2023/08/20 07:36:14;;;;;;;13.77;5.43;;;;;;;19.35;88.12;102183.44;5040943;28;20033;-70
2023/08/20 07:38:42;;;;;;;12.80;5.90;;;;;;;19.37;87.38;102178.69;5044973;28;20036;-70
2023/08/20 07:41:07;;;;;;;12.30;5.53;;;;;;;19.46;87.37;102184.78;5043652;28;20017;-70
2023/08/20 07:43:33;;;;;;;9.73;3.78;;;;;;;19.50;87.17;102178.78;5041568;28;20645;-70
2023/08/20 07:45:58;;;;;;;10.38;3.15;;;;;;;19.61;86.62;102181.97;5044508;28;20032;-70
2023/08/20 07:48:23;;;;;;;7.88;2.72;;;;;;;19.66;85.35;102193.00;5039129;28;20030;-70
2023/08/20 07:50:48;;;;;;;9.68;2.40;;;;;;;19.74;84.34;102200.94;5048481;28;20025;-70
2023/08/20 07:53:14;;;;;;;6.55;2.30;;;;;;;19.76;83.44;102188.94;5038117;28;20029;-70
2023/08/20 07:55:39;;;;;;;8.35;2.55;;;;;;;19.88;83.22;102202.69;5036180;28;20041;-70
2023/08/20 07:58:04;;;;;;;7.43;2.30;;;;;;;19.90;82.76;102200.63;5048147;28;20471;-70
2023/08/20 08:00:29;;;;;;;10.45;2.40;;;;;;;19.95;81.92;102203.56;5041638;28;20031;-70
2023/08/20 08:02:55;;;;;;;7.75;1.80;;;;;;;20.00;81.43;102201.09;5045560;28;20029;-70
2023/08/20 08:05:20;;;;;;;6.88;2.10;;;;;;;20.09;81.02;102199.91;5042205;28;20226;-70
2023/08/20 08:07:45;;;;;;;4.82;1.75;;;;;;;20.17;80.44;102204.28;5050503;28;20021;-70
2023/08/20 08:10:10;;;;;;;7.45;2.22;;;;;;;20.24;80.27;102202.47;5041353;28;20438;-70
2023/08/20 08:12:36;;;;;;;6.30;1.60;;;;;;;20.30;79.88;102198.97;5044544;28;20037;-70
2023/08/20 08:15:02;;;;;;;10.43;2.00;;;;;;;20.37;79.26;102207.06;5044576;28;20063;-70
2023/08/20 08:17:27;;;;;;;8.93;2.00;;;;;;;20.42;78.81;102204.63;5042907;28;20035;-70
2023/08/20 08:19:53;;;;;;;5.82;2.00;;;;;;;20.46;77.49;102208.56;5037874;28;20511;-70
2023/08/20 08:22:19;;;;;;;7.22;1.80;;;;;;;20.58;78.16;102212.38;5039682;28;20475;-70
2023/08/20 08:24:44;;;;;;;7.43;2.05;;;;;;;20.63;77.95;102217.16;5044073;28;20025;-70
2023/08/20 08:27:10;;;;;;;5.93;1.75;;;;;;;20.65;77.00;102212.38;5042689;28;20025;-70
2023/08/20 08:29:35;;;;;;;7.15;1.90;;;;;;;20.72;77.00;102208.66;5045436;28;20021;-70
2023/08/20 08:32:00;;;;;;;7.80;1.65;;;;;;;20.85;76.71;102202.47;5049225;28;20107;-70
2023/08/20 08:34:26;;;;;;;4.57;1.25;;;;;;;20.93;73.79;102223.03;5040477;28;20086;-70
2023/08/20 08:36:51;;;;;;;4.18;1.20;;;;;;;20.99;72.33;102219.50;5045442;28;20029;-70
2023/08/20 08:39:16;;;;;;;4.38;1.30;;;;;;;21.05;71.98;102218.69;5044999;28;20029;-70
2023/08/20 08:41:42;;;;;;;4.68;1.30;;;;;;;21.10;71.64;102216.19;5046802;28;20273;-70
2023/08/20 08:44:09;;;;;;;5.05;1.08;;;;;;;21.20;71.54;102224.72;5049739;28;20025;-70
2023/08/20 08:46:36;;;;;;;5.97;1.48;;;;;;;21.35;71.35;102219.13;5041662;28;20095;-70
2023/08/20 08:49:01;;;;;;;4.97;1.48;;;;;;;21.37;71.08;102216.22;5035387;28;20060;-70
2023/08/20 08:51:28;;;;;;;5.40;1.42;;;;;;;21.43;70.48;102216.25;5036364;28;20171;-70
2023/08/20 08:53:54;;;;;;;6.15;1.27;;;;;;;21.51;70.01;102212.50;5044574;28;20671;-70
2023/08/20 08:56:20;;;;;;;4.57;1.35;;;;;;;21.61;68.96;102212.88;5042117;28;20073;-70
2023/08/20 08:58:45;;;;;;;6.72;1.30;;;;;;;21.69;68.41;102214.56;5046408;28;20040;-70
2023/08/20 09:01:10;;;;;;;4.50;1.13;;;;;;;21.82;68.64;102220.75;5044279;28;20020;-70
2023/08/20 09:03:36;;;;;;;6.93;1.27;;;;;;;21.86;68.26;102224.69;5044763;28;20029;-70
2023/08/20 09:06:07;;;;;;;3.92;1.30;;;;;;;21.93;68.66;102221.97;5043656;28;20108;-70
2023/08/20 09:08:32;;;;;;;5.75;1.33;;;;;;;21.98;67.16;102216.78;5047766;28;20029;-70
2023/08/20 09:11:02;;;;;;;4.82;1.00;;;;;;;22.01;66.17;102227.16;5044302;28;20039;-70
2023/08/20 09:13:43;;;;;;;5.50;1.50;;;;;;;22.22;65.77;102223.34;5043408;28;20031;-70
2023/08/20 09:16:10;;;;;;;6.25;1.35;;;;;;;22.37;65.90;102223.09;5042009;28;20028;-70
2023/08/20 09:18:44;;;;;;;2.72;1.00;;;;;;;22.46;64.27;102227.22;5031216;28;20025;-70
2023/08/20 09:21:11;;;;;;;5.63;1.48;;;;;;;22.52;63.28;102221.75;5044238;28;20025;-70
2023/08/20 09:23:37;;;;;;;3.30;1.00;;;;;;;22.66;63.31;102219.00;5044644;28;20108;-70
2023/08/20 09:26:04;;;;;;;2.50;0.80;;;;;;;22.77;62.23;102223.72;5047252;28;20052;-69
2023/08/20 09:28:41;;;;;;;3.35;0.77;;;;;;;22.99;60.84;102229.66;5043684;28;20108;-69
2023/08/20 09:31:06;;;;;;;3.80;1.00;;;;;;;23.24;60.38;102227.81;5038423;28;20024;-69
2023/08/20 09:33:31;;;;;;;2.72;1.02;;;;;;;23.45;59.60;102232.84;5043889;28;20549;-69
2023/08/20 09:35:56;;;;;;;1.67;0.70;;;;;;;23.72;59.00;102233.47;5042306;28;20025;-69
2023/08/20 09:38:23;;;;;;;4.63;1.13;;;;;;;23.83;57.90;102228.34;5045028;28;20534;-69
2023/08/20 09:40:52;;;;;;;5.93;1.00;;;;;;;23.99;57.02;102238.56;5038419;28;20442;-69
2023/08/20 09:43:18;;;;;;;;;;;;;;;24.08;56.92;102229.94;5032679;28;20021;-69
2023/08/20 09:45:46;;;;;;;5.05;0.95;;;;;;;24.24;56.72;102220.31;5040868;28;19923;-69
2023/08/20 09:48:17;;;;;;;1.58;0.73;;;;;;;24.34;56.40;102220.66;5037768;28;20045;-69
2023/08/20 09:50:43;;;;;;;2.22;0.88;;;;;;;24.53;56.48;102239.63;5036090;28;20060;-68
2023/08/20 09:53:30;;;;;;;2.05;0.80;;;;;;;24.65;55.62;102233.19;5038928;28;20057;-69
2023/08/20 09:56:09;;;;;;;2.42;0.70;;;;;;;24.74;53.16;102238.31;5042097;28;20075;-69
2023/08/20 09:58:36;;;;;;;1.23;0.55;;;;;;;24.87;52.88;102229.97;5042094;28;20021;-68
2023/08/20 10:01:02;;;;;;;2.93;0.83;;;;;;;24.89;51.90;102227.84;5031662;28;20574;-68
2023/08/20 10:03:28;;;;;;;1.73;0.73;;;;;;;24.96;52.66;102239.44;5041181;28;20108;-68
2023/08/20 10:05:54;;;;;;;1.73;0.60;;;;;;;25.02;52.58;102233.09;5044969;28;20025;-69
2023/08/20 10:08:20;;;;;;;2.08;0.80;;;;;;;25.02;52.56;102238.53;5042051;28;20028;-69
2023/08/20 10:10:45;;;;;;;3.67;0.88;;;;;;;25.06;51.66;102236.19;5045493;28;20021;-69
2023/08/20 10:13:13;;;;;;;2.58;0.80;;;;;;;25.31;51.87;102239.53;5045581;28;20020;-71
2023/08/20 10:15:38;;;;;;;2.72;0.70;;;;;;;25.30;51.73;102238.72;5042259;28;20506;-69
2023/08/20 10:18:04;;;;;;;3.60;0.88;;;;;;;25.33;51.21;102237.41;5044473;28;20479;-69
2023/08/20 10:20:33;;;;;;;2.00;0.63;;;;;;;25.52;51.87;102233.53;5046395;28;20044;-70
2023/08/20 10:23:03;;;;;;;2.72;0.63;;;;;;;25.58;51.27;102229.84;5039879;28;20025;-69
2023/08/20 10:25:29;;;;;;;1.85;0.73;;;;;;;25.58;49.78;102234.47;5038885;28;20494;-69
2023/08/20 10:28:12;;;;;;;1.58;0.77;;;;;;;25.71;49.05;102230.69;5040122;28;20025;-69
2023/08/20 10:30:37;;;;;;;3.88;1.17;;;;;;;25.67;48.18;102224.09;5041960;28;20037;-70
2023/08/20 10:33:03;;;;;;;0.40;0.40;;;;;;;25.89;48.66;102225.97;5042464;28;20025;-70
2023/08/20 10:35:37;;;;;;;2.58;0.70;;;;;;;25.97;48.83;102230.19;5039329;28;20029;-71
2023/08/20 10:38:05;;;;;;;3.97;0.70;;;;;;;25.98;47.75;102226.41;5042466;28;20488;-70
2023/08/20 10:40:49;;;;;;;2.20;0.77;;;;;;;26.03;47.78;102232.00;5033337;28;20037;-70
2023/08/20 10:43:37;;;;;;;2.55;0.70;;;;;;;26.13;47.26;102229.47;5043976;28;20027;-70
2023/08/20 10:46:07;;;;;;;;;;;;;;;26.28;48.27;102230.84;5042369;28;20029;-70
2023/08/20 10:48:36;;;;;;;1.63;0.77;;;;;;;26.11;47.13;102225.34;5039398;28;19913;-70
2023/08/20 10:51:15;;;;;;;4.72;1.05;;;;;;;25.99;48.37;102233.50;5037146;28;20079;-70
2023/08/20 10:53:48;;;;;;;3.38;0.77;;;;;;;25.89;47.56;102236.84;5046301;28;20029;-69
2023/08/20 10:56:14;;;;;;;3.35;1.10;;;;;;;26.00;46.63;102231.63;5040763;28;20479;-70
2023/08/20 10:58:47;;;;;;;2.10;0.68;;;;;;;26.09;45.81;102236.47;5040814;28;20033;-70
2023/08/20 11:01:22;;;;;;;1.90;0.77;;;;;;;26.29;45.82;102232.50;5042403;28;20031;-70
2023/08/20 11:03:50;;;;;;;2.97;0.80;;;;;;;26.37;46.11;102232.16;5039777;28;20047;-70
2023/08/20 11:06:16;;;;;;;3.35;0.88;;;;;;;26.41;46.58;102244.22;5045323;28;20483;-70
2023/08/20 11:08:42;;;;;;;2.72;0.88;;;;;;;26.33;47.10;102239.13;5040579;28;20032;-69
2023/08/20 11:11:08;;;;;;;22.30;18.60;;;;;;;26.29;46.43;102236.03;5042401;28;20617;-70
2023/08/20 11:13:34;;;;;;;4.95;1.40;;;;;;;26.43;46.50;102232.00;5045995;28;20513;-70
2023/08/20 11:16:01;;;;;;;5.40;1.00;;;;;;;26.64;45.06;102235.13;5040743;28;20392;-70
2023/08/20 11:18:27;;;;;;;3.08;0.90;;;;;;;26.71;44.27;102231.19;5042636;28;20041;-70